»·PEaware :: N982CA KPSP-KBUR

N982CA :: KPSP-KBUR

FLIGHT INFORMATION

Flight Status: Arrived
Operator: Privately registered:
United States
More flights under this callsign
Pilot: David C. (25479)
Aircraft: CESSNA 208 CARAVAN
(C208)
More flights by this aircraft type
Origin: KPSP Palm Springs Intl
United States
Destination: KBUR Bob Hope-Burbank
United States
More flights between these airports :: More routes between these airports
Route: CATH1 PSP V388 PDZ V186 VNY
File this flight plan on PilotEdge
Remarks:
Altitude:
(Current/Filed)
10,000ft
Speed:
(Current/Filed)
175kts
Departed: 16-Aug-21 09:43 AM
Arrived: 16-Aug-21 10:35 AM
Distance/Time
Traveled:
95nm/0:52
Distance/Time
To Go:
Arrived

Flight Plot

Page will automatically refresh every two minutes.

Flight plan parsing failed; only flown route is shown


Map Options




Map Legend


Flown Route
Filed Route
Departure Airport
Arrival Airport
Navaid (VOR, NDB)
Fix

Horizontal Profiles

Position Reports

Time Latitude Longitude Heading Altitude Ground
Speed
16-Aug-21 09:31 33.825648 -116.509470 354 436ft 0kts
16-Aug-21 09:32 33.825648 -116.509470 354 436ft 0kts
16-Aug-21 09:33 33.825648 -116.509470 354 436ft 0kts
16-Aug-21 09:34 33.825648 -116.509470 354 436ft 0kts
16-Aug-21 09:35 33.825648 -116.509470 354 436ft 0kts
16-Aug-21 09:36 33.827218 -116.509284 32 441ft 11kts
16-Aug-21 09:37 33.827004 -116.507306 143 437ft 17kts
16-Aug-21 09:38 33.822352 -116.503182 143 418ft 22kts
16-Aug-21 09:39 33.818515 -116.498933 85 406ft 0kts
16-Aug-21 09:40 33.818515 -116.498933 85 406ft 0kts
16-Aug-21 09:41 33.819630 -116.498765 318 406ft 35kts
16-Aug-21 09:42 33.842680 -116.517158 326 1359ft 115kts
16-Aug-21 09:43 33.869676 -116.539769 323 2934ft 119kts
16-Aug-21 09:44 33.897570 -116.550573 59 4387ft 121kts
16-Aug-21 09:45 33.892121 -116.510795 106 5805ft 125kts
16-Aug-21 09:46 33.880033 -116.469835 111 6846ft 147kts
16-Aug-21 09:47 33.863632 -116.418955 111 6996ft 173kts
16-Aug-21 09:48 33.843395 -116.365893 116 7135ft 170kts
16-Aug-21 09:49 33.823815 -116.318604 116 8122ft 151kts
16-Aug-21 09:50 33.841995 -116.300735 325 9122ft 158kts
16-Aug-21 09:51 33.877347 -116.333777 322 9930ft 170kts
16-Aug-21 09:52 33.894812 -116.389483 280 10006ft 196kts
16-Aug-21 09:53 33.902289 -116.455793 279 9990ft 197kts
16-Aug-21 09:54 33.910927 -116.519303 279 9989ft 193kts
16-Aug-21 09:56 33.920351 -116.582930 279 9990ft 192kts
16-Aug-21 09:57 33.930277 -116.646167 283 9996ft 192kts
16-Aug-21 09:58 33.944453 -116.708346 285 9990ft 193kts
16-Aug-21 09:59 33.947846 -116.772114 266 9994ft 191kts
16-Aug-21 10:00 33.944702 -116.836231 265 9991ft 191kts
16-Aug-21 10:01 33.941412 -116.900412 265 9989ft 192kts
16-Aug-21 10:02 33.938116 -116.964444 265 9990ft 191kts
16-Aug-21 10:03 33.936073 -117.028650 268 9993ft 191kts
16-Aug-21 10:04 33.935472 -117.092765 268 9990ft 192kts
16-Aug-21 10:05 33.934959 -117.157023 268 9989ft 192kts
16-Aug-21 10:06 33.933241 -117.221146 265 9986ft 191kts
16-Aug-21 10:07 33.930142 -117.284852 265 9992ft 191kts
16-Aug-21 10:08 33.926956 -117.348864 265 9993ft 191kts
16-Aug-21 10:09 33.923681 -117.412784 265 10006ft 192kts
16-Aug-21 10:10 33.919531 -117.476854 265 9361ft 183kts
16-Aug-21 10:11 33.920598 -117.536920 287 8220ft 174kts
16-Aug-21 10:12 33.941421 -117.589594 298 8088ft 186kts
16-Aug-21 10:13 33.961887 -117.648491 291 8072ft 191kts
16-Aug-21 10:14 33.981107 -117.708452 291 8072ft 192kts
16-Aug-21 10:15 34.001788 -117.767580 294 8024ft 179kts
16-Aug-21 10:16 34.021181 -117.820641 294 6186ft 172kts
16-Aug-21 10:17 34.034833 -117.875123 292 6092ft 190kts
16-Aug-21 10:18 34.053380 -117.934984 291 6078ft 190kts
16-Aug-21 10:19 34.071662 -117.994338 290 6077ft 187kts
16-Aug-21 10:20 34.089472 -118.052036 290 6053ft 186kts
16-Aug-21 10:21 34.107406 -118.110717 290 6051ft 186kts
16-Aug-21 10:22 34.125308 -118.169370 290 6049ft 186kts
16-Aug-21 10:23 34.141042 -118.228618 276 6046ft 184kts
16-Aug-21 10:23 34.144720 -118.280179 273 6052ft 184kts
16-Aug-21 10:24 34.148184 -118.340806 272 4645ft 178kts
16-Aug-21 10:26 34.152294 -118.410717 272 4026ft 183kts
16-Aug-21 10:26 34.163523 -118.459568 286 4005ft 181kts
16-Aug-21 10:27 34.173964 -118.518863 279 4019ft 180kts
16-Aug-21 10:29 34.187042 -118.585484 293 4019ft 152kts
16-Aug-21 10:30 34.204500 -118.579110 107 4049ft 137kts
16-Aug-21 10:31 34.199607 -118.529100 89 3330ft 167kts
16-Aug-21 10:31 34.199343 -118.480666 91 2555ft 179kts
16-Aug-21 10:32 34.198584 -118.419374 90 1585ft 183kts
16-Aug-21 10:33 34.197937 -118.370217 90 779ft 89kts
16-Aug-21 10:34 34.198077 -118.360257 22 741ft 9kts
16-Aug-21 10:35 34.200806 -118.359395 224 741ft 7kts
16-Aug-21 10:36 34.200111 -118.359449 167 741ft 0kts

Navigation Log

Ident Type
Flight plan parsing failed, navigation log unavailable